createdAt,value
2017-07-29T00:00:28.297Z,4.50
2017-07-29T00:03:02.684Z,4.30
2017-07-29T00:05:37.112Z,4.60
2017-07-29T00:08:12.232Z,4.40
2017-07-29T00:10:47.590Z,4.15
2017-07-29T00:13:22.134Z,4.50
2017-07-29T00:15:56.480Z,3.92
2017-07-29T00:18:30.832Z,4.00
2017-07-29T00:21:05.364Z,4.32
2017-07-29T00:23:39.772Z,4.43
2017-07-29T00:26:14.284Z,3.87
2017-07-29T00:28:48.727Z,4.95
2017-07-29T00:31:23.032Z,4.57
2017-07-29T00:33:57.298Z,4.70
2017-07-29T00:36:31.629Z,3.87
2017-07-29T00:39:05.976Z,5.12
2017-07-29T00:41:40.441Z,5.03
2017-07-29T00:44:14.843Z,7.35
2017-07-29T00:46:49.272Z,6.45
2017-07-29T00:49:24.576Z,5.05
2017-07-29T00:51:59.042Z,6.18
2017-07-29T00:54:33.424Z,5.90
2017-07-29T00:57:07.763Z,6.72
2017-07-29T00:59:42.976Z,6.85
2017-07-29T01:02:17.444Z,6.82
2017-07-29T01:04:51.740Z,7.68
2017-07-29T01:07:26.159Z,5.95
2017-07-29T01:10:00.661Z,5.72
2017-07-29T01:12:35.041Z,5.70
2017-07-29T01:15:09.405Z,6.70
2017-07-29T01:17:43.848Z,6.57
2017-07-29T01:20:18.474Z,6.97
2017-07-29T01:22:53.628Z,7.15
2017-07-29T01:25:28.029Z,6.45
2017-07-29T01:28:02.663Z,7.95
2017-07-29T01:30:37.072Z,7.22
2017-07-29T01:33:11.394Z,8.60
2017-07-29T01:35:45.759Z,7.07
2017-07-29T01:38:20.497Z,7.90
2017-07-29T01:40:54.953Z,7.95
2017-07-29T01:43:30.264Z,7.35
2017-07-29T01:46:04.567Z,8.35
2017-07-29T01:48:39.037Z,6.70
2017-07-29T01:51:13.352Z,8.50
2017-07-29T01:53:47.680Z,8.13
2017-07-29T01:56:22.168Z,8.38
2017-07-29T01:58:56.577Z,8.50
2017-07-29T02:01:30.908Z,7.72
2017-07-29T02:04:05.532Z,7.53
2017-07-29T02:06:39.964Z,7.93
2017-07-29T02:09:14.508Z,7.37
2017-07-29T02:11:48.907Z,8.68
2017-07-29T02:14:23.402Z,8.43
2017-07-29T02:16:57.935Z,8.50
2017-07-29T02:19:32.440Z,7.68
2017-07-29T02:22:06.928Z,7.50
2017-07-29T02:24:41.577Z,7.20
2017-07-29T02:27:16.046Z,7.18
2017-07-29T02:29:50.614Z,7.95
2017-07-29T02:32:25.057Z,7.75
2017-07-29T02:34:59.513Z,7.93
2017-07-29T02:37:33.823Z,7.43
2017-07-29T02:40:08.369Z,7.80
2017-07-29T02:42:42.849Z,7.87
2017-07-29T02:45:17.347Z,7.97
2017-07-29T02:47:51.768Z,8.93
2017-07-29T02:50:26.184Z,8.00
2017-07-29T02:53:01.220Z,8.02
2017-07-29T02:55:35.576Z,9.45
2017-07-29T02:58:11.308Z,8.05
2017-07-29T03:00:46.808Z,7.85
2017-07-29T03:03:21.153Z,7.85
2017-07-29T03:05:55.609Z,8.02
2017-07-29T03:08:30.055Z,8.20
2017-07-29T03:11:04.443Z,7.50
2017-07-29T03:13:38.866Z,7.72
2017-07-29T03:16:13.610Z,6.53
2017-07-29T03:18:48.100Z,7.43
2017-07-29T03:21:22.592Z,7.53
2017-07-29T03:23:57.048Z,7.25
2017-07-29T03:26:31.628Z,7.20
2017-07-29T03:29:06.053Z,7.50
2017-07-29T03:31:40.419Z,6.93
2017-07-29T03:34:14.720Z,8.15
2017-07-29T03:36:49.249Z,7.43
2017-07-29T03:39:23.629Z,6.70
2017-07-29T03:41:57.996Z,6.78
2017-07-29T03:44:33.090Z,7.10
2017-07-29T03:47:07.651Z,7.45
2017-07-29T03:49:42.114Z,7.65
2017-07-29T03:52:16.484Z,7.60
2017-07-29T03:54:50.883Z,7.12
2017-07-29T03:57:25.332Z,6.85
2017-07-29T03:59:59.832Z,8.05
2017-07-29T04:02:34.181Z,8.35
2017-07-29T04:05:08.658Z,7.20
2017-07-29T04:07:43.351Z,6.75
2017-07-29T04:10:17.783Z,9.20
2017-07-29T04:12:52.302Z,8.77
2017-07-29T04:15:26.719Z,9.05
2017-07-29T04:18:01.038Z,7.30
2017-07-29T04:20:35.457Z,9.18
2017-07-29T04:23:09.742Z,8.95
2017-07-29T04:25:44.179Z,9.10
2017-07-29T04:28:19.268Z,10.48
2017-07-29T04:30:53.672Z,10.02
2017-07-29T04:33:28.128Z,8.65
2017-07-29T04:36:03.222Z,9.80
2017-07-29T04:38:37.695Z,8.50
2017-07-29T04:41:12.149Z,8.77
2017-07-29T04:43:46.613Z,8.55
2017-07-29T04:46:21.029Z,11.02
2017-07-29T04:48:55.370Z,7.65
2017-07-29T04:51:29.858Z,9.02
2017-07-29T04:54:04.511Z,9.90
2017-07-29T04:56:38.920Z,9.35
2017-07-29T04:59:13.513Z,9.88
2017-07-29T05:01:48.000Z,8.30
2017-07-29T05:04:22.495Z,9.13
2017-07-29T05:06:57.020Z,9.05
2017-07-29T05:09:31.401Z,8.52
2017-07-29T05:12:05.917Z,9.45
2017-07-29T05:14:40.505Z,8.45
2017-07-29T05:17:14.785Z,9.02
2017-07-29T05:19:49.307Z,9.00
2017-07-29T05:22:24.413Z,9.10
2017-07-29T05:24:58.903Z,9.25
2017-07-29T05:27:33.312Z,8.60
2017-07-29T05:30:07.692Z,8.50
2017-07-29T05:32:42.061Z,7.55
2017-07-29T05:35:16.706Z,8.50
2017-07-29T05:37:51.008Z,8.80
2017-07-29T05:40:25.437Z,8.23
2017-07-29T05:43:00.247Z,7.57
2017-07-29T05:45:34.898Z,7.70
2017-07-29T05:48:09.272Z,7.78
2017-07-29T05:50:43.764Z,8.40
2017-07-29T05:53:18.139Z,7.37
2017-07-29T05:55:52.627Z,7.32
2017-07-29T05:58:27.028Z,8.30
2017-07-29T06:01:02.254Z,7.20
2017-07-29T06:03:36.689Z,8.95
2017-07-29T06:06:14.851Z,4.97
2017-07-29T06:08:50.178Z,8.18
2017-07-29T06:11:24.548Z,7.90
2017-07-29T06:13:58.873Z,9.02
2017-07-29T06:16:34.344Z,9.18
2017-07-29T06:19:09.398Z,8.25
2017-07-29T06:21:43.978Z,7.40
2017-07-29T06:24:18.381Z,8.73
2017-07-29T06:26:52.813Z,8.20
2017-07-29T06:29:27.196Z,8.55
2017-07-29T06:32:01.765Z,9.55
2017-07-29T06:34:36.028Z,9.23
2017-07-29T06:37:10.691Z,8.18
2017-07-29T06:39:45.220Z,9.40
2017-07-29T06:42:21.004Z,9.45
2017-07-29T06:44:55.348Z,10.75
2017-07-29T06:47:29.800Z,10.70
2017-07-29T06:50:06.514Z,11.50
2017-07-29T06:52:41.445Z,10.80
2017-07-29T06:55:16.768Z,11.18
2017-07-29T06:57:51.124Z,10.98
2017-07-29T07:00:25.400Z,10.57
2017-07-29T07:03:00.402Z,10.10
2017-07-29T07:05:35.704Z,10.35
2017-07-29T07:08:10.959Z,12.30
2017-07-29T07:10:45.472Z,10.95
2017-07-29T07:13:19.908Z,10.93
2017-07-29T07:15:54.223Z,11.50
2017-07-29T07:18:28.576Z,12.63
2017-07-29T07:21:03.059Z,10.23
2017-07-29T07:23:37.664Z,11.35
2017-07-29T07:26:13.398Z,12.13
2017-07-29T07:28:48.185Z,10.77
2017-07-29T07:31:23.863Z,11.55
2017-07-29T07:33:58.313Z,9.90
2017-07-29T07:36:32.709Z,9.48
2017-07-29T07:39:07.175Z,10.18
2017-07-29T07:41:41.688Z,9.70
2017-07-29T07:44:16.254Z,10.85
2017-07-29T07:46:51.785Z,10.43
2017-07-29T07:49:26.232Z,9.50
2017-07-29T07:52:00.567Z,9.27
2017-07-29T07:54:35.033Z,10.02
2017-07-29T07:57:09.506Z,9.90
2017-07-29T07:59:44.104Z,8.23
2017-07-29T08:02:18.552Z,8.15
2017-07-29T08:04:53.617Z,8.25
2017-07-29T08:07:28.744Z,9.20
2017-07-29T08:10:03.889Z,8.43
2017-07-29T08:12:38.297Z,9.45
2017-07-29T08:15:12.661Z,9.45
2017-07-29T08:17:47.156Z,9.88
2017-07-29T08:20:22.559Z,10.45
2017-07-29T08:22:56.864Z,9.15
2017-07-29T08:25:31.368Z,9.80
2017-07-29T08:28:05.884Z,10.40
2017-07-29T08:30:40.368Z,9.00
2017-07-29T08:33:14.692Z,11.30
2017-07-29T08:35:49.117Z,10.45
2017-07-29T08:38:23.414Z,9.55
2017-07-29T08:40:57.753Z,10.40
2017-07-29T08:43:32.081Z,10.30
2017-07-29T08:46:06.524Z,9.18
2017-07-29T08:48:40.994Z,10.38
2017-07-29T08:51:15.528Z,10.60
2017-07-29T08:53:49.953Z,10.75
2017-07-29T08:56:25.151Z,5.47
2017-07-29T08:58:59.553Z,9.90
2017-07-29T09:01:34.144Z,9.35
2017-07-29T09:04:08.624Z,11.23
2017-07-29T09:06:42.973Z,8.57
2017-07-29T09:09:17.446Z,9.57
2017-07-29T09:11:52.041Z,8.52
2017-07-29T09:14:26.525Z,8.02
2017-07-29T09:17:01.022Z,7.70
2017-07-29T09:19:35.519Z,9.13
2017-07-29T09:22:10.313Z,6.40
2017-07-29T09:24:44.620Z,8.13
2017-07-29T09:27:19.075Z,9.25
2017-07-29T09:29:53.564Z,9.00
2017-07-29T09:32:28.803Z,10.25
2017-07-29T09:35:03.925Z,10.18
2017-07-29T09:37:38.328Z,9.27
2017-07-29T09:40:12.841Z,8.65
2017-07-29T09:42:47.488Z,5.62
2017-07-29T09:45:21.828Z,9.68
2017-07-29T09:47:57.003Z,7.82
2017-07-29T09:50:33.029Z,10.98
2017-07-29T09:53:07.678Z,10.02
2017-07-29T09:55:42.849Z,5.97
2017-07-29T09:58:17.304Z,9.75
2017-07-29T10:00:51.791Z,9.45
2017-07-29T10:03:26.171Z,9.80
2017-07-29T10:06:00.657Z,11.12
2017-07-29T10:08:35.164Z,11.07
2017-07-29T10:11:10.384Z,11.30
2017-07-29T10:13:45.683Z,10.80
2017-07-29T10:16:20.023Z,10.70
2017-07-29T10:18:54.497Z,10.48
2017-07-29T10:21:28.960Z,11.95
2017-07-29T10:24:03.539Z,9.48
2017-07-29T10:26:38.369Z,9.63
2017-07-29T10:29:12.783Z,9.45
2017-07-29T10:31:47.176Z,9.90
2017-07-29T10:34:22.489Z,9.90
2017-07-29T10:36:56.852Z,10.50
2017-07-29T10:39:31.474Z,11.60
2017-07-29T10:42:05.764Z,9.73
2017-07-29T10:44:40.262Z,9.75
2017-07-29T10:47:14.676Z,11.02
2017-07-29T10:49:49.066Z,11.55
2017-07-29T10:52:23.439Z,11.77
2017-07-29T10:54:57.999Z,10.02
2017-07-29T10:57:32.335Z,8.90
2017-07-29T11:00:07.888Z,10.25
2017-07-29T11:02:42.324Z,9.55
2017-07-29T11:05:16.636Z,8.80
2017-07-29T11:07:51.016Z,8.15
2017-07-29T11:10:25.596Z,9.35
2017-07-29T11:13:00.510Z,8.63
2017-07-29T11:15:35.250Z,8.73
2017-07-29T11:18:10.296Z,7.32
2017-07-29T11:20:44.811Z,8.25
2017-07-29T11:23:19.253Z,5.93
2017-07-29T11:25:53.612Z,5.63
2017-07-29T11:28:28.796Z,3.83
2017-07-29T11:31:03.228Z,5.07
2017-07-29T11:33:37.488Z,4.90
2017-07-29T11:36:12.046Z,4.93
2017-07-29T11:38:46.512Z,4.60
2017-07-29T11:41:21.108Z,5.40
2017-07-29T11:43:55.500Z,5.77
2017-07-29T11:46:29.862Z,5.50
2017-07-29T11:49:04.316Z,5.13
2017-07-29T11:51:38.722Z,5.87
2017-07-29T11:54:13.204Z,5.63
2017-07-29T11:56:47.650Z,6.55
2017-07-29T11:59:22.084Z,6.05
2017-07-29T12:01:56.561Z,6.93
2017-07-29T12:04:31.146Z,6.57
2017-07-29T12:07:06.256Z,6.00
2017-07-29T12:09:40.683Z,7.45
2017-07-29T12:12:15.597Z,4.53
2017-07-29T12:14:51.029Z,5.10
2017-07-29T12:17:25.482Z,5.03
2017-07-29T12:19:59.827Z,5.10
2017-07-29T12:22:42.066Z,5.93
2017-07-29T12:25:18.128Z,5.20
2017-07-29T12:27:52.440Z,5.80
2017-07-29T12:30:26.964Z,6.30
2017-07-29T12:33:01.385Z,6.80
2017-07-29T12:35:36.080Z,4.97
2017-07-29T12:38:10.418Z,5.40
2017-07-29T12:40:44.858Z,4.87
2017-07-29T12:43:19.309Z,4.50
2017-07-29T12:45:53.638Z,5.60
2017-07-29T12:48:28.146Z,5.47
2017-07-29T12:51:03.862Z,5.30
2017-07-29T12:53:38.430Z,4.57
2017-07-29T12:56:12.928Z,4.27
2017-07-29T12:58:47.325Z,4.27
2017-07-29T13:01:21.641Z,4.70
2017-07-29T13:03:56.207Z,4.20
2017-07-29T13:06:31.338Z,4.13
2017-07-29T13:09:05.839Z,3.97
2017-07-29T13:11:41.180Z,4.90
2017-07-29T13:14:15.640Z,4.07
2017-07-29T13:16:50.064Z,3.70
2017-07-29T13:19:24.489Z,3.57
2017-07-29T13:21:58.856Z,3.97
2017-07-29T13:24:33.347Z,3.60
2017-07-29T13:27:07.983Z,4.40
2017-07-29T13:29:42.255Z,4.07
2017-07-29T13:32:16.927Z,4.57
2017-07-29T13:34:51.480Z,4.27
2017-07-29T13:37:26.929Z,3.70
2017-07-29T13:40:01.299Z,4.00
2017-07-29T13:42:35.911Z,11.50
2017-07-29T13:45:11.307Z,5.65
2017-07-29T13:47:47.334Z,6.15
2017-07-29T13:50:21.862Z,6.50
2017-07-29T13:52:56.800Z,6.10
2017-07-29T13:55:32.040Z,6.00
2017-07-29T13:58:06.439Z,7.10
2017-07-29T14:00:40.843Z,6.55
2017-07-29T14:03:15.265Z,5.30
2017-07-29T14:05:49.761Z,3.12
2017-07-29T14:08:24.427Z,4.90
2017-07-29T14:10:58.731Z,4.05
2017-07-29T14:13:33.162Z,2.90
2017-07-29T14:16:07.687Z,3.33
2017-07-29T14:18:42.288Z,3.55
2017-07-29T14:21:16.786Z,2.80
2017-07-29T14:23:51.372Z,2.60
2017-07-29T14:26:25.757Z,2.33
2017-07-29T14:29:00.911Z,2.58
2017-07-29T14:31:35.339Z,1.83
2017-07-29T14:34:09.633Z,2.33
2017-07-29T14:36:45.105Z,3.00
2017-07-29T14:39:19.776Z,2.50
2017-07-29T14:41:54.208Z,2.00
2017-07-29T14:44:28.831Z,2.33
2017-07-29T14:47:03.303Z,2.37
2017-07-29T14:49:37.780Z,2.17
2017-07-29T14:52:13.362Z,4.47
2017-07-29T14:54:47.883Z,2.63
2017-07-29T14:57:22.280Z,1.87
2017-07-29T14:59:56.722Z,2.60
2017-07-29T15:02:31.132Z,2.20
2017-07-29T15:05:05.466Z,3.20
2017-07-29T15:07:39.751Z,2.23
2017-07-29T15:10:14.082Z,2.70
2017-07-29T15:12:49.284Z,2.70
2017-07-29T15:15:23.776Z,2.03
2017-07-29T15:17:58.068Z,2.37
2017-07-29T15:20:32.553Z,2.57
2017-07-29T15:23:07.845Z,2.57
2017-07-29T15:25:42.400Z,2.90
2017-07-29T15:28:16.966Z,2.10
2017-07-29T15:30:51.408Z,2.10
2017-07-29T15:33:26.477Z,1.60
2017-07-29T15:36:00.961Z,2.10
2017-07-29T15:38:35.527Z,1.97
2017-07-29T15:41:10.141Z,1.80
2017-07-29T15:43:44.611Z,1.60
2017-07-29T15:46:19.122Z,1.40
2017-07-29T15:48:53.405Z,1.90
2017-07-29T15:51:29.272Z,2.30
2017-07-29T15:54:03.597Z,1.90
2017-07-29T15:56:38.077Z,2.00
2017-07-29T15:59:12.439Z,1.50
2017-07-29T16:01:46.903Z,1.73
2017-07-29T16:04:21.409Z,1.60
2017-07-29T16:06:55.940Z,1.63
2017-07-29T16:09:30.390Z,2.07
2017-07-29T16:12:04.903Z,2.20
2017-07-29T16:14:39.244Z,2.10
2017-07-29T16:17:13.737Z,1.90
2017-07-29T16:19:48.144Z,2.23
2017-07-29T16:22:22.717Z,1.77
2017-07-29T16:25:00.397Z,1.73
2017-07-29T16:27:36.031Z,1.50
2017-07-29T16:30:10.552Z,1.70
2017-07-29T16:32:45.149Z,1.33
2017-07-29T16:35:19.529Z,1.37
2017-07-29T16:37:54.244Z,2.33
2017-07-29T16:40:29.574Z,1.17
2017-07-29T16:43:04.159Z,1.60
2017-07-29T16:45:38.489Z,1.67
2017-07-29T16:48:12.860Z,2.00
2017-07-29T16:50:48.909Z,1.50
2017-07-29T16:53:23.352Z,2.00
2017-07-29T16:55:57.798Z,1.90
2017-07-29T16:58:32.182Z,1.47
2017-07-29T17:01:07.398Z,1.70
2017-07-29T17:03:41.969Z,1.80
2017-07-29T17:06:16.571Z,1.48
2017-07-29T17:08:50.989Z,1.40
2017-07-29T17:11:25.288Z,1.48
2017-07-29T17:13:59.624Z,2.12
2017-07-29T17:16:34.713Z,2.00
2017-07-29T17:19:09.297Z,2.35
2017-07-29T17:21:43.626Z,1.70
2017-07-29T17:24:18.081Z,1.90
2017-07-29T17:26:52.532Z,1.40
2017-07-29T17:29:26.998Z,1.65
2017-07-29T17:32:01.336Z,1.90
2017-07-29T17:34:36.061Z,1.55
2017-07-29T17:37:10.732Z,1.70
2017-07-29T17:39:45.347Z,1.67
2017-07-29T17:42:20.047Z,2.90
2017-07-29T17:44:54.489Z,1.67
2017-07-29T17:47:28.769Z,2.30
2017-07-29T17:50:03.245Z,1.90
2017-07-29T17:52:37.546Z,1.95
2017-07-29T17:55:11.928Z,1.90
2017-07-29T17:57:46.349Z,2.25
2017-07-29T18:00:20.690Z,2.30
2017-07-29T18:02:55.165Z,3.20
2017-07-29T18:05:30.265Z,2.03
2017-07-29T18:08:04.691Z,3.50
2017-07-29T18:10:39.110Z,2.83
2017-07-29T18:13:14.323Z,3.40
2017-07-29T18:15:48.810Z,2.67
2017-07-29T18:18:23.296Z,2.78
2017-07-29T18:20:57.871Z,2.53
2017-07-29T18:23:32.208Z,3.00
2017-07-29T18:26:06.690Z,2.53
2017-07-29T18:28:41.950Z,2.78
2017-07-29T18:31:17.124Z,2.10
2017-07-29T18:33:51.516Z,2.20
2017-07-29T18:36:26.067Z,2.25
2017-07-29T18:39:00.556Z,2.37
2017-07-29T18:41:35.021Z,2.00
2017-07-29T18:44:09.472Z,2.10
2017-07-29T18:46:44.118Z,1.70
2017-07-29T18:49:18.403Z,3.50
2017-07-29T18:51:52.846Z,2.30
2017-07-29T18:54:27.335Z,1.85
2017-07-29T18:57:01.716Z,2.10
2017-07-29T18:59:36.145Z,2.00
2017-07-29T19:02:10.549Z,2.00
2017-07-29T19:04:44.885Z,3.00
2017-07-29T19:07:19.272Z,2.50
2017-07-29T19:09:53.757Z,2.20
2017-07-29T19:12:28.635Z,2.12
2017-07-29T19:15:02.980Z,2.03
2017-07-29T19:17:37.446Z,2.50
2017-07-29T19:20:11.938Z,1.90
2017-07-29T19:22:46.641Z,1.90
2017-07-29T19:25:21.016Z,2.30
2017-07-29T19:27:55.493Z,2.83
2017-07-29T19:30:29.909Z,2.33
2017-07-29T19:33:04.465Z,7.33
2017-07-29T19:35:39.707Z,5.18
2017-07-29T19:38:14.180Z,3.10
2017-07-29T19:40:48.521Z,2.40
2017-07-29T19:43:22.901Z,2.62
2017-07-29T19:45:57.656Z,2.08
2017-07-29T19:48:32.750Z,4.10
2017-07-29T19:51:07.184Z,3.30
2017-07-29T19:53:42.620Z,3.25
2017-07-29T19:56:17.708Z,2.90
2017-07-29T19:58:52.072Z,2.80
2017-07-29T20:01:26.336Z,2.78
2017-07-29T20:04:01.614Z,2.15
2017-07-29T20:06:36.153Z,2.45
2017-07-29T20:09:10.533Z,3.83
2017-07-29T20:11:44.874Z,2.20
2017-07-29T20:14:19.500Z,2.55
2017-07-29T20:16:53.860Z,3.05
2017-07-29T20:19:28.385Z,2.80
2017-07-29T20:22:02.729Z,2.80
2017-07-29T20:24:38.147Z,3.33
2017-07-29T20:27:13.200Z,3.50
2017-07-29T20:29:47.636Z,3.05
2017-07-29T20:32:22.168Z,2.78
2017-07-29T20:34:56.461Z,2.97
2017-07-29T20:37:30.769Z,3.30
2017-07-29T20:40:05.247Z,4.57
2017-07-29T20:42:40.440Z,4.60
2017-07-29T20:45:14.788Z,4.68
2017-07-29T20:47:49.084Z,4.30
2017-07-29T20:50:23.585Z,3.92
2017-07-29T20:52:58.620Z,7.78
2017-07-29T20:55:33.103Z,4.62
2017-07-29T20:58:07.465Z,4.22
2017-07-29T21:00:41.957Z,4.55
2017-07-29T21:03:16.371Z,3.30
2017-07-29T21:05:50.933Z,3.60
2017-07-29T21:08:25.240Z,4.10
2017-07-29T21:10:59.605Z,4.85
2017-07-29T21:13:34.718Z,3.62
2017-07-29T21:16:09.040Z,5.30
2017-07-29T21:18:43.454Z,4.15
2017-07-29T21:21:17.789Z,4.18
2017-07-29T21:23:52.280Z,4.40
2017-07-29T21:26:27.005Z,4.68
2017-07-29T21:29:02.232Z,4.57
2017-07-29T21:31:36.829Z,5.87
2017-07-29T21:34:11.321Z,6.22
2017-07-29T21:36:45.800Z,7.40
2017-07-29T21:39:20.227Z,5.12
2017-07-29T21:41:54.549Z,5.10
2017-07-29T21:44:28.980Z,5.90
2017-07-29T21:47:03.327Z,5.00
2017-07-29T21:49:37.649Z,5.05
2017-07-29T21:52:12.045Z,4.28
2017-07-29T21:54:46.558Z,4.15
2017-07-29T21:57:20.901Z,4.60
2017-07-29T21:59:55.296Z,5.60
2017-07-29T22:02:29.725Z,4.72
2017-07-29T22:05:04.844Z,6.40
2017-07-29T22:07:40.013Z,4.40
2017-07-29T22:10:14.489Z,5.22
2017-07-29T22:12:48.791Z,5.05
2017-07-29T22:15:23.224Z,5.28
2017-07-29T22:17:58.657Z,4.95
2017-07-29T22:20:33.904Z,4.40
2017-07-29T22:23:08.436Z,5.78
2017-07-29T22:25:42.760Z,4.85
2017-07-29T22:28:17.332Z,5.32
2017-07-29T22:30:52.497Z,4.97
2017-07-29T22:33:27.824Z,5.75
2017-07-29T22:36:02.268Z,4.70
2017-07-29T22:38:36.896Z,5.25
2017-07-29T22:41:11.312Z,4.90
2017-07-29T22:43:45.661Z,5.18
2017-07-29T22:46:20.165Z,5.45
2017-07-29T22:48:54.804Z,5.95
2017-07-29T22:51:30.109Z,5.37
2017-07-29T22:54:04.456Z,5.35
2017-07-29T22:56:38.857Z,4.30
2017-07-29T22:59:14.006Z,4.60
2017-07-29T23:01:48.519Z,4.93
2017-07-29T23:04:23.111Z,5.80
2017-07-29T23:06:57.652Z,5.97
2017-07-29T23:09:31.996Z,5.62
2017-07-29T23:12:07.121Z,5.10
2017-07-29T23:14:42.373Z,5.68
2017-07-29T23:17:16.915Z,5.40
2017-07-29T23:19:51.371Z,6.45
2017-07-29T23:22:31.696Z,4.87
2017-07-29T23:25:06.401Z,6.25
2017-07-29T23:27:40.864Z,4.82
2017-07-29T23:30:15.351Z,5.65
2017-07-29T23:32:49.739Z,5.80
2017-07-29T23:35:24.052Z,5.20
2017-07-29T23:37:58.499Z,5.20
2017-07-29T23:40:32.902Z,4.72
2017-07-29T23:43:07.195Z,5.28
2017-07-29T23:45:41.724Z,5.20
2017-07-29T23:48:16.143Z,5.37
2017-07-29T23:50:50.664Z,5.25
2017-07-29T23:53:25.217Z,4.65
2017-07-29T23:55:59.817Z,4.65
2017-07-29T23:58:34.108Z,5.12
